OITM  Sahand Airport

Add Bookmark

Maragheh, Iran

Status IATA
Operational ACP
Latitude Longitude
37° 20' 52" N 46° 7' 40" E
37.348000 46.127899
Local (DST + 5) UTC (GMT + 4)
Oct 1, 2014 09:46 Oct 1, 2014 18:16
Sunrise-Sunset Local UTC
Begin Civil Twilight 05:53 02:23
Sunrise 06:19 02:49
Sunset 06:10 14:40
End Civil Twilight 06:36 15:06

Current Weather

METAR Observed VFR
OITM 011800Z 09006KT CAVOK 17/03 Q1019 Wed, Oct 1, 2014 @ 18:00 UTC
(16 Minutes ago)
Visual Flight Rules
Wind Visibility Clouds Conditions
090° at 6 knots (11 kph) 10 km or more
  • Clear skies
  • No significant weather
Temperatures Readings Precipitation
Current Temp 17°C (63°F)
Dewpoint 3°C (37°F)
Humidity 39%
Altimeter 30.09"Hg
Sea Level Pressure 1019mb
Field Elevation 4396.33'
None Recorded

Additional weather within a 92.6km radius of OITM

Map ICAO Location
OITT 87.8km N (006°)

24 Hour Weather History

Loading
-

24 Hour Weather Graphs

Loading
-

CheckWX.com is intended as a tool to help pilots better visualize weather data. It is not intended as a substitute for an official weather briefing obtained from a Flight Service Station. CheckWX.com does not meet the FAA requirements for an official pre-flight weather briefing. Therefore, it's important that pilots still call and obtain an official FSS pre-flight weather briefing.